Terminal Aerodrome Forecast
Issued by NWS

Home | Current Version | Previous Version | Text Only | Print | Product List | Glossary On
Versions: 1 2 3 4 5 6 7 8 9 10 11 12 13 14 15 16 17 18 19 20 21
267
FTUS43 KMQT 261720
TAFSAW
TAF
KSAW 261720Z 2618/2718 22010KT P6SM BKN025
     FM261900 22010KT 6SM -SHSN BKN025
     FM262200 25009KT 5SM -SHSN BKN030
     FM270000 28009KT P6SM -SHSN BKN030
     FM270100 28008KT P6SM -SHSN BKN050
     FM270300 28008KT P6SM BKN110
     FM270600 29004KT P6SM BKN200
     FM271600 19008KT P6SM BKN060=

USA.gov is the U.S. government's official web portal to all federal, state and local government web resources and services.